Time;durP1;ratioP1;P1;durP2;ratioP2;P2;SDS_P1;SDS_P2;PMS_P1;PMS_P2;Temp;Humidity;BMP_temperature;BMP_pressure;BME280_temperature;BME280_humidity;BME280_pressure;Samples;Min_cycle;Max_cycle;Signal;HPM_P1;HPM_P2
2024/01/22 00:01:21;;;;;;;16.10;9.40;;;;;;;-0.95;71.19;100355.84;105426;1254;96530;-83
2024/01/22 00:03:49;;;;;;;15.00;8.30;;;;;;;-0.96;71.13;100348.71;105214;1259;109945;-81
2024/01/22 00:06:17;;;;;;;20.10;8.60;;;;;;;-0.97;71.30;100348.36;105445;1258;97114;-83
2024/01/22 00:08:45;;;;;;;15.00;7.20;;;;;;;-0.98;71.26;100347.48;105468;1260;108147;-83
2024/01/22 00:11:13;;;;;;;13.50;7.80;;;;;;;-0.98;71.22;100345.40;105128;1256;96600;-83
2024/01/22 00:13:41;;;;;;;17.00;9.00;;;;;;;-0.98;71.19;100343.85;105437;1253;96606;-83
2024/01/22 00:16:09;;;;;;;16.20;8.90;;;;;;;-1.00;71.01;100338.98;105201;1257;110567;-83
2024/01/22 00:18:37;;;;;;;22.10;9.90;;;;;;;-1.02;71.09;100344.92;105424;1254;97518;-82
2024/01/22 00:21:05;;;;;;;14.70;7.80;;;;;;;-1.02;71.14;100340.21;105588;1258;108098;-81
2024/01/22 00:23:33;;;;;;;15.70;8.70;;;;;;;-1.01;71.09;100336.70;105416;1253;96600;-80
2024/01/22 00:26:01;;;;;;;19.60;9.30;;;;;;;-1.02;71.04;100336.55;105261;1254;96553;-82
2024/01/22 00:28:28;;;;;;;14.20;8.30;;;;;;;-1.02;71.24;100340.73;105410;1257;109842;-85
2024/01/22 00:30:56;;;;;;;14.90;9.30;;;;;;;-1.02;70.98;100334.13;105288;1253;97354;-83
2024/01/22 00:33:24;;;;;;;11.30;6.20;;;;;;;-1.02;71.07;100331.16;105538;1257;109352;-82
2024/01/22 00:35:52;;;;;;;18.30;10.30;;;;;;;-1.03;71.03;100334.13;105685;1259;96655;-84
2024/01/22 00:38:20;;;;;;;13.80;7.80;;;;;;;-1.04;70.98;100338.48;105860;1253;96606;-83
2024/01/22 00:40:48;;;;;;;16.90;8.90;;;;;;;-1.05;70.83;100336.40;105527;1254;109622;-83
2024/01/22 00:43:16;;;;;;;17.30;9.10;;;;;;;-1.07;71.05;100328.23;105502;1253;96507;-81
2024/01/22 00:45:44;;;;;;;21.20;10.10;;;;;;;-1.08;70.86;100324.73;105581;1257;106828;-83
2024/01/22 00:48:12;;;;;;;15.80;8.20;;;;;;;-1.09;70.73;100324.40;105588;1257;96548;-82
2024/01/22 00:50:40;;;;;;;21.50;10.80;;;;;;;-1.08;71.08;100327.02;105610;1253;96599;-84
2024/01/22 00:53:08;;;;;;;21.30;8.70;;;;;;;-1.10;71.01;100326.13;105642;1253;109596;-81
2024/01/22 00:55:36;;;;;;;17.00;8.60;;;;;;;-1.10;71.01;100322.66;105344;1257;96834;-78
2024/01/22 00:58:04;;;;;;;22.00;10.90;;;;;;;-1.10;71.03;100314.83;105593;1257;107421;-80
2024/01/22 01:00:32;;;;;;;16.50;8.50;;;;;;;-1.10;70.83;100314.48;105214;1258;96668;-84
2024/01/22 01:03:00;;;;;;;19.60;9.30;;;;;;;-1.11;70.74;100315.52;105406;1253;97416;-83
2024/01/22 01:05:28;;;;;;;18.70;9.70;;;;;;;-1.13;70.98;100307.17;105177;1257;110292;-84
2024/01/22 01:07:55;;;;;;;12.70;7.00;;;;;;;-1.14;70.92;100305.44;105642;1254;96585;-83
2024/01/22 01:10:23;;;;;;;16.10;8.80;;;;;;;-1.14;71.00;100302.66;105626;1255;106111;-79
2024/01/22 01:12:51;;;;;;;20.40;9.00;;;;;;;-1.14;70.84;100302.48;105269;1254;96651;-83
2024/01/22 01:15:20;;;;;;;13.60;7.70;;;;;;;-1.15;70.85;100297.45;107656;1253;96619;-83
2024/01/22 01:17:50;;;;;;;21.20;10.50;;;;;;;-1.17;70.91;100294.14;105503;1257;109573;-83
2024/01/22 01:20:18;;;;;;;21.10;10.50;;;;;;;-1.19;71.01;100295.36;105455;1253;96668;-83
2024/01/22 01:22:46;;;;;;;16.80;8.60;;;;;;;-1.22;70.98;100292.77;105719;1253;107938;-84
2024/01/22 01:25:14;;;;;;;19.30;10.50;;;;;;;-1.23;70.76;100295.38;105481;1253;96611;-83
2024/01/22 01:27:42;;;;;;;20.40;10.40;;;;;;;-1.23;70.81;100298.54;105567;1256;96556;-81
2024/01/22 01:30:10;;;;;;;17.50;9.00;;;;;;;-1.23;70.98;100304.42;105189;1257;109413;-80
2024/01/22 01:32:39;;;;;;;22.30;10.60;;;;;;;-1.23;70.74;100302.70;105522;1253;97679;-82
2024/01/22 01:35:07;;;;;;;25.50;11.90;;;;;;;-1.24;70.70;100302.70;105443;1253;107694;-84
2024/01/22 01:37:35;;;;;;;19.90;10.70;;;;;;;-1.26;70.59;100303.75;105185;1253;97444;-83
2024/01/22 01:40:04;;;;;;;18.60;9.70;;;;;;;-1.27;70.75;100304.10;105175;1257;96594;-83
2024/01/22 01:42:32;;;;;;;18.00;9.50;;;;;;;-1.27;70.88;100306.55;105304;1253;109886;-78
2024/01/22 01:45:00;;;;;;;24.00;10.90;;;;;;;-1.26;70.75;100305.16;105392;1257;97417;-83
2024/01/22 01:47:28;;;;;;;20.30;10.40;;;;;;;-1.26;71.08;100304.98;105181;1257;107358;-83
2024/01/22 01:49:56;;;;;;;21.30;10.20;;;;;;;-1.25;70.89;100302.36;105734;1254;96603;-81
2024/01/22 01:52:24;;;;;;;15.30;8.20;;;;;;;-1.24;70.91;100299.92;105265;1258;96578;-83
2024/01/22 01:54:52;;;;;;;18.40;9.60;;;;;;;-1.24;70.96;100288.45;105421;1253;110533;-83
2024/01/22 01:57:22;;;;;;;21.50;11.00;;;;;;;-1.25;70.95;100275.91;105403;1257;97519;-84
2024/01/22 01:59:51;;;;;;;23.40;11.40;;;;;;;-1.24;71.06;100276.94;105522;1257;107664;-83
2024/01/22 02:02:20;;;;;;;21.30;11.30;;;;;;;-1.25;70.60;100273.13;105454;1257;96625;-83
2024/01/22 02:04:48;;;;;;;20.50;10.00;;;;;;;-1.25;70.78;100273.48;105360;1253;96680;-83
2024/01/22 02:07:16;;;;;;;18.10;10.60;;;;;;;-1.25;70.52;100270.17;105319;1255;109326;-83
2024/01/22 02:09:47;;;;;;;19.40;10.20;;;;;;;-1.25;70.88;100275.91;105570;1253;96602;-82
2024/01/22 02:12:17;;;;;;;17.90;8.20;;;;;;;-1.25;70.70;100273.30;105400;1258;107536;-77
2024/01/22 02:14:46;;;;;;;14.20;7.80;;;;;;;-1.24;70.78;100273.48;105523;1253;96590;-83
2024/01/22 02:17:15;;;;;;;16.30;8.70;;;;;;;-1.25;70.77;100272.95;105588;1256;96656;-82
2024/01/22 02:19:43;;;;;;;20.70;10.10;;;;;;;-1.25;70.70;100272.77;105494;1254;109570;-82
2024/01/22 02:22:11;;;;;;;17.60;10.80;;;;;;;-1.25;70.83;100273.30;105480;1257;96514;-82
2024/01/22 02:24:39;;;;;;;19.80;9.40;;;;;;;-1.26;70.66;100275.58;105411;1259;107592;-83
2024/01/22 02:27:07;;;;;;;21.30;10.30;;;;;;;-1.26;70.76;100271.91;105424;1258;97838;-83
2024/01/22 02:29:35;;;;;;;20.10;9.20;;;;;;;-1.26;70.57;100267.04;105465;1253;96531;-82
2024/01/22 02:32:03;;;;;;;16.00;8.30;;;;;;;-1.27;70.77;100259.39;105261;1254;109928;-83
2024/01/22 02:34:31;;;;;;;22.10;11.00;;;;;;;-1.27;70.55;100254.69;105706;1253;97462;-83
2024/01/22 02:36:59;;;;;;;20.00;10.40;;;;;;;-1.27;70.66;100251.20;105470;1254;107569;-83
2024/01/22 02:39:27;;;;;;;21.80;10.00;;;;;;;-1.27;70.60;100257.99;105540;1254;97826;-83
2024/01/22 02:41:55;;;;;;;21.50;10.60;;;;;;;-1.25;70.40;100264.77;105484;1253;96952;-82
2024/01/22 02:44:23;;;;;;;15.40;8.80;;;;;;;-1.25;70.70;100267.20;105601;1257;109978;-83
2024/01/22 02:46:51;;;;;;;25.60;11.30;;;;;;;-1.27;70.65;100271.92;105487;1253;96693;-82
2024/01/22 02:49:19;;;;;;;19.30;10.80;;;;;;;-1.28;70.65;100271.75;105485;1257;108350;-83
2024/01/22 02:51:47;;;;;;;22.40;11.00;;;;;;;-1.28;70.68;100268.78;105774;1257;97194;-83
2024/01/22 02:54:15;;;;;;;18.20;9.70;;;;;;;-1.28;70.67;100260.26;105872;1257;96527;-84
2024/01/22 02:56:43;;;;;;;18.40;10.20;;;;;;;-1.29;70.57;100247.39;105585;1257;110354;-79
2024/01/22 02:59:11;;;;;;;15.50;8.60;;;;;;;-1.30;70.69;100246.17;105611;1257;96663;-83
2024/01/22 03:01:39;;;;;;;21.90;10.10;;;;;;;-1.30;70.60;100246.52;105560;1257;107657;-82
2024/01/22 03:04:07;;;;;;;17.30;8.60;;;;;;;-1.31;70.65;100250.01;105321;1257;96743;-83
2024/01/22 03:06:37;;;;;;;14.80;8.30;;;;;;;-1.30;70.36;100243.90;105427;1253;96588;-83
2024/01/22 03:09:05;;;;;;;20.80;9.60;;;;;;;-1.30;70.37;100240.95;105305;1259;109280;-82
2024/01/22 03:11:33;;;;;;;16.50;10.40;;;;;;;-1.31;70.71;100237.13;105601;1258;96599;-83
2024/01/22 03:14:01;;;;;;;15.20;8.80;;;;;;;-1.32;70.41;100228.08;105519;1259;107549;-83
2024/01/22 03:16:29;;;;;;;15.70;8.50;;;;;;;-1.33;70.30;100223.21;105322;1259;96673;-80
2024/01/22 03:18:57;;;;;;;18.10;10.00;;;;;;;-1.34;70.25;100217.13;105583;1253;97685;-84
2024/01/22 03:21:25;;;;;;;13.80;7.50;;;;;;;-1.36;70.18;100216.78;105565;1268;109330;-83
2024/01/22 03:23:53;;;;;;;18.60;9.90;;;;;;;-1.38;70.40;100215.23;105367;1269;96607;-81
2024/01/22 03:26:22;;;;;;;18.90;9.20;;;;;;;-1.39;70.15;100214.37;105284;1259;107648;-83
2024/01/22 03:28:51;;;;;;;25.60;10.50;;;;;;;-1.40;70.42;100207.40;105456;1257;96619;-83
2024/01/22 03:31:23;;;;;;;16.10;8.40;;;;;;;-1.39;70.11;100205.14;105432;1256;97924;-82
2024/01/22 03:33:52;;;;;;;19.60;10.70;;;;;;;-1.40;70.30;100202.71;105386;1253;109896;-82
2024/01/22 03:36:21;;;;;;;21.10;11.00;;;;;;;-1.41;70.16;100205.67;105254;1259;96596;-84
2024/01/22 03:38:50;;;;;;;15.80;8.50;;;;;;;-1.41;70.27;100205.14;105423;1253;107576;-82
2024/01/22 03:41:18;;;;;;;18.00;8.90;;;;;;;-1.41;70.15;100206.36;105466;1254;96609;-78
2024/01/22 03:43:46;;;;;;;16.30;9.20;;;;;;;-1.43;70.05;100202.20;105529;1253;96604;-82
2024/01/22 03:46:15;;;;;;;20.30;11.40;;;;;;;-1.45;69.91;100202.74;105245;1259;109921;-83
2024/01/22 03:48:43;;;;;;;15.50;7.90;;;;;;;-1.45;70.20;100205.89;105289;1259;97284;-83
2024/01/22 03:51:11;;;;;;;17.00;9.40;;;;;;;-1.44;70.04;100203.60;105576;1258;107601;-79
2024/01/22 03:53:39;;;;;;;20.60;9.40;;;;;;;-1.45;69.84;100196.48;105461;1253;96647;-80
2024/01/22 03:56:07;;;;;;;17.20;8.70;;;;;;;-1.45;70.03;100195.27;105653;1257;96519;-82
2024/01/22 03:58:38;;;;;;;19.10;10.20;;;;;;;-1.47;69.81;100193.36;105585;1257;109939;-82
2024/01/22 04:01:06;;;;;;;19.80;10.70;;;;;;;-1.47;69.61;100184.14;105361;1258;96540;-79
2024/01/22 04:03:35;;;;;;;15.30;6.70;;;;;;;-1.47;69.94;100188.14;105430;1254;108388;-83
2024/01/22 04:06:03;;;;;;;16.80;6.40;;;;;;;-1.46;69.88;100185.53;105650;1258;96592;-82
2024/01/22 04:08:31;;;;;;;19.10;9.10;;;;;;;-1.45;69.91;100172.83;105580;1258;97918;-81
2024/01/22 04:10:59;;;;;;;13.00;6.60;;;;;;;-1.44;69.76;100158.73;105216;1253;109684;-82
2024/01/22 04:13:27;;;;;;;14.10;8.20;;;;;;;-1.43;69.86;100153.66;105303;1257;96600;-83
2024/01/22 04:16:02;;;;;;;15.50;8.10;;;;;;;-1.42;69.72;100153.64;105529;1259;107701;-83
2024/01/22 04:18:30;;;;;;;15.60;7.90;;;;;;;-1.43;69.94;100148.26;105449;1257;96601;-83
2024/01/22 04:20:58;;;;;;;19.70;6.80;;;;;;;-1.43;69.75;100151.05;105446;1257;97605;-83
2024/01/22 04:23:27;;;;;;;16.70;8.60;;;;;;;-1.44;69.72;100140.81;105280;1259;110201;-80
2024/01/22 04:25:55;;;;;;;12.70;7.00;;;;;;;-1.43;69.62;100137.65;105476;1259;97928;-81
2024/01/22 04:28:23;;;;;;;16.10;5.70;;;;;;;-1.42;69.75;100136.25;105496;1257;107580;-82
2024/01/22 04:30:50;;;;;;;15.60;9.00;;;;;;;-1.41;69.48;100139.20;105573;1256;97695;-79
2024/01/22 04:33:18;;;;;;;15.00;8.40;;;;;;;-1.42;69.60;100135.91;105640;1257;97560;-84
2024/01/22 04:35:48;;;;;;;14.40;5.60;;;;;;;-1.42;69.35;100131.73;105331;1254;109750;-84
2024/01/22 04:38:17;;;;;;;17.40;7.90;;;;;;;-1.43;69.08;100129.31;108609;1253;94554;-85
2024/01/22 04:40:45;;;;;;;17.40;9.30;;;;;;;-1.43;69.24;100130.36;105383;1256;107152;-80
2024/01/22 04:43:13;;;;;;;19.00;9.90;;;;;;;-1.44;69.29;100122.02;105797;1256;97070;-83
2024/01/22 04:45:40;;;;;;;19.30;9.40;;;;;;;-1.44;69.39;100110.88;108496;1253;94271;-84
2024/01/22 04:48:08;;;;;;;20.50;10.30;;;;;;;-1.44;69.13;100107.39;105235;1255;109095;-79
2024/01/22 04:50:37;;;;;;;20.00;8.40;;;;;;;-1.43;68.98;100108.60;105632;1254;97985;-79
2024/01/22 04:53:05;;;;;;;18.70;10.00;;;;;;;-1.42;69.02;100105.28;105484;1259;110415;-78
2024/01/22 04:55:33;;;;;;;13.30;7.50;;;;;;;-1.43;69.15;100104.77;105471;1253;96683;-80
2024/01/22 04:58:04;;;;;;;13.20;6.70;;;;;;;-1.42;68.99;100115.38;106414;1254;96578;-79
2024/01/22 05:00:32;;;;;;;13.40;8.70;;;;;;;-1.42;69.02;100116.23;105400;1259;110122;-79
2024/01/22 05:03:04;;;;;;;13.60;7.40;;;;;;;-1.43;68.97;100116.60;105849;1257;97407;-79
2024/01/22 05:05:34;;;;;;;14.90;7.50;;;;;;;-1.43;68.86;100116.77;105486;1253;108176;-86
2024/01/22 05:08:03;;;;;;;12.70;6.80;;;;;;;-1.42;69.01;100105.64;105830;1256;96616;-81
2024/01/22 05:10:30;;;;;;;14.90;8.20;;;;;;;-1.43;68.84;100105.81;105625;1257;96703;-79
2024/01/22 05:12:58;;;;;;;15.80;7.20;;;;;;;-1.43;68.82;100097.98;105931;1254;108417;-81
2024/01/22 05:15:26;;;;;;;16.50;7.60;;;;;;;-1.44;68.68;100094.36;105624;1257;97524;-87
2024/01/22 05:17:54;;;;;;;14.70;8.60;;;;;;;-1.45;68.59;100099.73;105255;1269;108050;-85
2024/01/22 05:20:23;;;;;;;11.00;6.60;;;;;;;-1.47;68.41;100099.23;105562;1259;97385;-81
2024/01/22 05:22:50;;;;;;;12.20;6.80;;;;;;;-1.49;68.41;100106.21;108602;1253;94902;-85
2024/01/22 05:25:18;;;;;;;15.50;8.40;;;;;;;-1.51;68.68;100104.99;108635;1253;109883;-81
2024/01/22 05:27:47;;;;;;;15.10;7.80;;;;;;;-1.53;68.44;100105.02;108666;1253;95676;-83
2024/01/22 05:30:15;;;;;;;20.30;8.30;;;;;;;-1.52;68.36;100106.58;106483;1253;107687;-81
2024/01/22 05:32:43;;;;;;;12.20;7.20;;;;;;;-1.52;68.20;100102.74;105486;1254;96587;-84
2024/01/22 05:35:13;;;;;;;16.90;9.50;;;;;;;-1.52;68.22;100106.74;105668;1257;96635;-84
2024/01/22 05:37:41;;;;;;;11.50;6.90;;;;;;;-1.55;68.38;100101.38;105589;1254;109948;-85
2024/01/22 05:40:13;;;;;;;13.30;7.70;;;;;;;-1.56;68.18;100096.85;105264;1259;96593;-83
2024/01/22 05:42:41;;;;;;;;;;;;;;;-1.57;68.46;100088.16;105482;1254;107894;-84
2024/01/22 05:45:11;;;;;;;14.30;7.30;;;;;;;-1.60;68.31;100093.92;105615;1257;96692;-83
2024/01/22 05:47:39;;;;;;;13.40;7.50;;;;;;;-1.64;68.05;100101.79;105400;1259;96685;-84
2024/01/22 05:50:10;;;;;;;15.10;7.10;;;;;;;-1.66;68.18;100105.27;105383;1257;109957;-84
2024/01/22 05:52:40;;;;;;;14.70;7.30;;;;;;;-1.68;68.08;100099.71;105402;1258;97198;-82
2024/01/22 05:55:11;;;;;;;17.30;9.00;;;;;;;-1.69;68.01;100097.30;105769;1253;107866;-81
2024/01/22 11:03:42;;;;;;;13.10;7.80;;;;;;;1.48;60.27;99672.14;102362;1296;635301;-71
2024/01/22 11:06:13;;;;;;;18.00;7.40;;;;;;;1.48;59.63;99674.40;104883;1268;94329;-72
2024/01/22 11:08:43;;;;;;;16.90;7.50;;;;;;;1.47;59.50;99667.44;104698;1273;94191;-73
2024/01/22 11:11:13;;;;;;;17.00;8.20;;;;;;;1.46;59.57;99673.94;104831;1267;107297;-71
2024/01/22 11:13:49;;;;;;;16.10;8.40;;;;;;;1.45;59.64;99673.95;104654;1267;95538;-72
2024/01/22 11:16:21;;;;;;;20.90;8.40;;;;;;;1.45;59.58;99663.98;104561;1270;161243;-73
2024/01/22 11:18:57;;;;;;;13.00;7.70;;;;;;;1.45;59.20;99670.29;104562;1268;94341;-73
2024/01/22 11:21:39;;;;;;;16.70;9.30;;;;;;;1.45;59.64;99675.17;104708;1266;94481;-70
2024/01/22 11:24:19;;;;;;;13.10;7.20;;;;;;;1.46;59.51;99660.30;104613;1270;107127;-71
2024/01/22 11:26:51;;;;;;;13.00;6.60;;;;;;;1.45;59.21;99658.59;104705;1267;95447;-71
2024/01/22 11:29:26;;;;;;;15.70;8.20;;;;;;;1.46;59.18;99663.27;104891;1276;107757;-71
2024/01/22 11:31:55;;;;;;;12.10;6.30;;;;;;;1.47;59.26;99658.69;104764;1265;95302;-77
2024/01/22 11:34:43;;;;;;;17.80;8.70;;;;;;;1.50;58.97;99657.23;105145;1257;95335;-74
2024/01/22 11:37:33;;;;;;;14.50;7.20;;;;;;;1.53;58.86;99645.11;105320;1257;108608;-72
2024/01/22 11:40:07;;;;;;;15.20;7.70;;;;;;;1.52;59.30;99644.77;105304;1256;95474;-73
2024/01/22 11:42:35;;;;;;;13.90;7.30;;;;;;;1.51;59.31;99650.23;105228;1278;107761;-73
2024/01/22 11:45:10;;;;;;;14.10;7.70;;;;;;;1.50;59.34;99649.36;105592;1260;95331;-73
2024/01/22 11:47:39;;;;;;;16.00;7.70;;;;;;;1.49;59.06;99648.35;105483;1253;95164;-73
2024/01/22 11:50:08;;;;;;;18.50;8.70;;;;;;;1.46;59.00;99648.92;105627;1256;108494;-71
2024/01/22 11:52:37;;;;;;;17.70;9.30;;;;;;;1.44;58.84;99642.70;105252;1257;95208;-72
2024/01/22 11:55:09;;;;;;;21.50;8.90;;;;;;;1.41;58.84;99639.83;105491;1253;107786;-73
2024/01/22 11:57:38;;;;;;;20.90;10.30;;;;;;;1.39;58.81;99633.58;105559;1253;95262;-76
2024/01/22 12:00:11;;;;;;;16.80;7.60;;;;;;;1.39;58.73;99637.60;105377;1258;95315;-71
2024/01/22 12:02:44;;;;;;;17.20;7.10;;;;;;;1.40;58.70;99632.84;105939;1253;107998;-71
2024/01/22 12:05:17;;;;;;;14.20;7.00;;;;;;;1.40;58.56;99632.85;105502;1253;95433;-70
2024/01/22 12:07:48;;;;;;;14.10;7.30;;;;;;;1.41;58.61;99631.26;105317;1258;107681;-72
2024/01/22 12:10:22;;;;;;;11.80;6.60;;;;;;;1.44;58.55;99628.90;105514;1257;95280;-72
2024/01/22 12:12:52;;;;;;;16.00;8.10;;;;;;;1.42;58.01;99617.94;105745;1256;95263;-77
2024/01/22 12:15:21;;;;;;;16.50;7.70;;;;;;;1.42;58.28;99617.42;105480;1257;107111;-70
2024/01/22 12:17:50;;;;;;;18.00;8.70;;;;;;;1.42;58.13;99618.13;105453;1257;95514;-71
2024/01/22 12:20:20;;;;;;;18.10;9.90;;;;;;;1.43;58.21;99612.14;105556;1258;107082;-72
2024/01/22 12:22:56;;;;;;;16.50;8.10;;;;;;;1.43;57.69;99610.22;105369;1253;96168;-72
2024/01/22 12:25:33;;;;;;;17.20;7.70;;;;;;;1.42;58.07;99598.90;105675;1252;95228;-75
2024/01/22 12:28:13;;;;;;;17.70;9.40;;;;;;;1.41;57.95;99582.66;105327;1257;107277;-70
2024/01/22 12:30:44;;;;;;;13.90;7.20;;;;;;;1.39;57.73;99576.95;105434;1257;96112;-72
2024/01/22 12:33:20;;;;;;;18.70;9.40;;;;;;;1.37;57.81;99581.02;105501;1253;107575;-69
2024/01/22 12:36:12;;;;;;;21.90;10.20;;;;;;;1.36;58.05;99579.64;105393;1252;95984;-75
2024/01/22 12:38:51;;;;;;;14.80;6.60;;;;;;;1.37;57.69;99581.20;105372;1252;95266;-70
2024/01/22 12:41:21;;;;;;;18.20;8.70;;;;;;;1.37;57.20;99578.41;105266;1258;108979;-70
2024/01/22 12:43:54;;;;;;;15.60;9.30;;;;;;;1.36;57.44;99585.44;105488;1257;96826;-69
2024/01/22 12:46:22;;;;;;;17.80;9.20;;;;;;;1.36;57.72;99575.29;105614;1253;105955;-73
2024/01/22 12:48:55;;;;;;;13.70;7.00;;;;;;;1.36;57.54;99580.87;105739;1257;95320;-72
2024/01/22 12:51:26;;;;;;;12.00;6.20;;;;;;;1.35;57.22;99579.68;105657;1252;95149;-73
2024/01/22 12:53:55;;;;;;;16.20;8.70;;;;;;;1.32;57.21;99582.71;105696;1257;108559;-74
2024/01/22 12:56:23;;;;;;;20.40;9.90;;;;;;;1.31;57.32;99591.48;105735;1257;95214;-75
2024/01/22 12:58:52;;;;;;;17.30;9.10;;;;;;;1.33;57.22;99587.25;105556;1258;107622;-74
2024/01/22 13:01:21;;;;;;;17.70;8.30;;;;;;;1.33;57.35;99581.84;105562;1253;96509;-80
2024/01/22 13:03:50;;;;;;;13.70;7.90;;;;;;;1.31;57.15;99575.04;105570;1252;95216;-75
2024/01/22 13:06:22;;;;;;;14.70;7.40;;;;;;;1.32;56.83;99566.29;105539;1253;107653;-76
2024/01/22 13:08:57;;;;;;;12.60;7.30;;;;;;;1.31;56.91;99565.98;105470;1256;95831;-75
2024/01/22 13:11:26;;;;;;;12.90;7.20;;;;;;;1.30;56.84;99570.02;105316;1253;108150;-77
2024/01/22 13:13:57;;;;;;;17.80;9.10;;;;;;;1.28;56.69;99557.15;105391;1259;96056;-77
2024/01/22 13:16:26;;;;;;;18.00;8.60;;;;;;;1.26;56.86;99565.23;105555;1253;95234;-76
2024/01/22 13:18:54;;;;;;;19.40;8.90;;;;;;;1.25;56.93;99563.16;105651;1257;108053;-76
2024/01/22 13:21:25;;;;;;;12.40;6.50;;;;;;;1.26;56.98;99550.39;105762;1252;96063;-74
2024/01/22 13:23:53;;;;;;;15.70;8.00;;;;;;;1.25;56.59;99556.35;105537;1255;107685;-70
2024/01/22 13:26:22;;;;;;;18.80;9.10;;;;;;;1.25;56.52;99552.34;105426;1252;95393;-70
2024/01/22 13:28:51;;;;;;;16.10;8.40;;;;;;;1.23;56.60;99550.11;105577;1255;96549;-70
2024/01/22 13:31:19;;;;;;;18.10;9.10;;;;;;;1.22;56.33;99545.27;105726;1255;107636;-72
2024/01/22 13:33:47;;;;;;;12.50;5.30;;;;;;;1.19;56.32;99546.53;105718;1253;95508;-71
2024/01/22 13:36:20;;;;;;;19.80;9.40;;;;;;;1.17;56.50;99548.02;105698;1256;107550;-72
2024/01/22 13:38:49;;;;;;;18.50;9.60;;;;;;;1.14;56.25;99534.98;105707;1252;95247;-73
2024/01/22 13:41:20;;;;;;;19.10;9.80;;;;;;;1.13;56.16;99546.71;105451;1254;95227;-72
2024/01/22 13:43:50;;;;;;;18.10;7.40;;;;;;;1.11;56.42;99543.09;105653;1254;108543;-71
2024/01/22 13:46:18;;;;;;;17.80;8.50;;;;;;;1.10;56.03;99540.14;105704;1252;95264;-72
2024/01/22 13:48:46;;;;;;;17.20;8.80;;;;;;;1.08;56.36;99540.20;105489;1256;107257;-72
2024/01/22 13:51:21;;;;;;;13.60;6.00;;;;;;;1.07;56.40;99537.95;105669;1254;95267;-70
2024/01/22 13:53:49;;;;;;;14.20;8.30;;;;;;;1.06;56.23;99523.30;105456;1252;95251;-73
2024/01/22 13:56:18;;;;;;;15.40;8.20;;;;;;;1.05;56.48;99532.42;105206;1253;108620;-71
2024/01/22 13:58:47;;;;;;;18.30;8.20;;;;;;;1.04;56.36;99527.55;105603;1253;95549;-72
2024/01/22 14:01:18;;;;;;;15.80;8.50;;;;;;;1.03;56.10;99518.32;105689;1253;107112;-74
2024/01/22 14:03:47;;;;;;;16.50;8.70;;;;;;;0.99;56.18;99530.14;105587;1252;95368;-72
2024/01/22 14:06:15;;;;;;;17.00;8.80;;;;;;;0.97;56.30;99522.34;105352;1256;96582;-73
2024/01/22 14:08:43;;;;;;;15.70;8.20;;;;;;;0.96;56.23;99514.48;105458;1254;107832;-72
2024/01/22 14:11:16;;;;;;;16.90;9.20;;;;;;;0.93;56.06;99502.52;105339;1254;95257;-73
2024/01/22 14:13:47;;;;;;;14.20;6.70;;;;;;;0.90;56.21;99504.34;105688;1253;107520;-71
2024/01/22 14:16:16;;;;;;;16.40;7.80;;;;;;;0.88;56.07;99497.22;105834;1253;95258;-80
2024/01/22 14:18:45;;;;;;;18.80;8.60;;;;;;;0.84;55.88;99494.87;105387;1257;95243;-73
2024/01/22 14:21:15;;;;;;;12.00;6.60;;;;;;;0.81;56.15;99488.67;105772;1256;108187;-73
2024/01/22 14:23:47;;;;;;;19.00;8.90;;;;;;;0.78;56.07;99489.80;105574;1268;95279;-73
2024/01/22 14:26:17;;;;;;;13.90;6.20;;;;;;;0.75;56.00;99479.76;105743;1256;105454;-71
2024/01/22 14:29:14;;;;;;;11.90;6.70;;;;;;;0.72;55.94;99464.27;105543;1257;95362;-73
2024/01/22 14:31:55;;;;;;;15.60;8.60;;;;;;;0.68;55.84;99452.54;105707;1255;96171;-71
2024/01/22 14:34:23;;;;;;;14.90;8.70;;;;;;;0.63;55.67;99451.77;105587;1253;107778;-71
2024/01/22 14:36:51;;;;;;;17.10;7.50;;;;;;;0.61;55.53;99444.52;105896;1255;96187;-70
2024/01/22 14:39:20;;;;;;;17.40;8.40;;;;;;;0.57;55.70;99434.48;105948;1252;107707;-74
2024/01/22 14:41:48;;;;;;;13.30;7.30;;;;;;;0.56;55.63;99434.86;105435;1256;95258;-65
2024/01/22 14:44:16;;;;;;;14.70;7.50;;;;;;;0.54;55.67;99411.52;105750;1253;95115;-64
2024/01/22 14:46:45;;;;;;;17.90;9.00;;;;;;;0.53;55.61;99418.89;105265;1253;109183;-66
2024/01/22 14:49:14;;;;;;;10.30;5.70;;;;;;;0.51;55.64;99412.12;106060;1252;95371;-66
2024/01/22 14:51:45;;;;;;;14.60;8.20;;;;;;;0.50;55.45;99405.16;105726;1255;107005;-69
2024/01/22 14:54:14;;;;;;;14.40;8.00;;;;;;;0.50;55.54;99396.97;107845;1252;94184;-68
2024/01/22 14:56:43;;;;;;;19.10;9.10;;;;;;;0.49;55.48;99392.11;104727;1270;95267;-67
2024/01/22 14:59:12;;;;;;;13.80;7.40;;;;;;;0.49;55.48;99380.95;105567;1257;108988;-67
2024/01/22 15:01:39;;;;;;;15.90;8.00;;;;;;;0.48;55.57;99377.64;104808;1260;95295;-67
2024/01/22 15:04:09;;;;;;;12.00;6.30;;;;;;;0.47;55.33;99368.95;105445;1267;107094;-65
2024/01/22 15:06:41;;;;;;;13.70;7.50;;;;;;;0.48;55.55;99366.84;104685;1257;95415;-68
2024/01/22 15:09:10;;;;;;;17.60;9.00;;;;;;;0.47;55.41;99370.52;104741;1257;95285;-68
2024/01/22 15:11:39;;;;;;;16.90;7.60;;;;;;;0.47;55.24;99368.27;105441;1257;108014;-63
2024/01/22 15:14:09;;;;;;;15.90;7.10;;;;;;;0.46;55.45;99363.56;104765;1260;95465;-62
2024/01/22 15:16:37;;;;;;;19.40;8.10;;;;;;;0.46;55.21;99366.71;104854;1259;108298;-66
2024/01/22 15:19:05;;;;;;;14.10;7.40;;;;;;;0.45;55.16;99370.23;105336;1257;96729;-70
2024/01/22 15:21:35;;;;;;;13.80;6.80;;;;;;;0.43;55.15;99370.42;105200;1257;96579;-69
2024/01/22 15:24:03;;;;;;;17.70;8.40;;;;;;;0.41;55.13;99365.10;105198;1261;111321;-70
2024/01/22 15:26:31;;;;;;;14.30;7.80;;;;;;;0.38;55.23;99372.17;105103;1260;96620;-73
2024/01/22 15:28:59;;;;;;;16.60;8.60;;;;;;;0.36;55.29;99362.10;105123;1258;107505;-69
2024/01/22 15:31:29;;;;;;;12.70;7.10;;;;;;;0.33;55.16;99364.61;105184;1259;97059;-71
2024/01/22 15:33:59;;;;;;;12.50;7.00;;;;;;;0.32;55.19;99360.95;105138;1257;97522;-69
2024/01/22 15:36:27;;;;;;;11.60;5.60;;;;;;;0.32;54.91;99352.06;104766;1259;110314;-69
2024/01/22 15:38:57;;;;;;;17.70;7.00;;;;;;;0.32;55.10;99357.31;104611;1263;96529;-71
2024/01/22 15:41:25;;;;;;;14.10;7.10;;;;;;;0.33;55.00;99354.50;105507;1257;107669;-68
2024/01/22 15:43:54;;;;;;;11.20;7.50;;;;;;;0.33;55.06;99345.59;104755;1270;97058;-70
2024/01/22 15:46:22;;;;;;;10.20;5.90;;;;;;;0.33;55.06;99350.46;104715;1259;96602;-70
2024/01/22 15:48:51;;;;;;;11.30;5.70;;;;;;;0.34;54.76;99349.58;104831;1254;108744;-70
2024/01/22 15:51:19;;;;;;;14.90;7.20;;;;;;;0.35;54.70;99358.98;105466;1259;96584;-70
2024/01/22 16:07:09;;;;;;;;;;;;;;;0.86;54.48;99371.23;104262;1282;649064;-70
2024/01/22 16:09:41;;;;;;;18.70;7.50;;;;;;;0.83;54.66;99371.66;104501;1270;133761;-70
2024/01/22 16:12:10;;;;;;;13.50;7.00;;;;;;;0.79;54.64;99373.52;104882;1268;95266;-71
2024/01/22 16:14:38;;;;;;;15.80;6.70;;;;;;;0.75;54.56;99376.92;104782;1269;107371;-72
2024/01/22 16:17:06;;;;;;;12.00;5.50;;;;;;;0.72;54.68;99371.94;104830;1269;95185;-73
2024/01/22 16:19:35;;;;;;;11.30;7.00;;;;;;;0.69;54.62;99368.52;105389;1264;107283;-72
2024/01/22 16:22:05;;;;;;;15.00;6.80;;;;;;;0.67;54.66;99364.23;104709;1264;94430;-72
2024/01/22 16:24:34;;;;;;;14.70;7.20;;;;;;;0.65;54.35;99365.51;104767;1267;94308;-72
2024/01/22 16:27:03;;;;;;;12.90;7.30;;;;;;;0.65;54.51;99374.76;104989;1256;107744;-72
2024/01/22 16:29:35;;;;;;;15.40;7.50;;;;;;;0.63;54.43;99367.30;105258;1263;95438;-72
2024/01/22 16:32:04;;;;;;;12.50;6.50;;;;;;;0.62;54.27;99363.14;105592;1260;107617;-72
2024/01/22 16:34:32;;;;;;;15.60;7.70;;;;;;;0.62;54.22;99354.42;106923;1261;95808;-73
2024/01/22 16:36:59;;;;;;;12.60;7.50;;;;;;;0.60;54.31;99349.40;106456;1257;95257;-73
2024/01/22 16:39:29;;;;;;;11.10;5.50;;;;;;;0.58;54.14;99342.67;106149;1256;108360;-72
2024/01/22 16:41:57;;;;;;;15.30;7.40;;;;;;;0.58;54.14;99346.50;105651;1260;95460;-74